sensor_id;sensor_type;location;lat;lon;timestamp;P1;durP1;ratioP1;P2;durP2;ratioP2
73296;SDS011;61524;50.938;11.396;2023-08-08T00:01:39;9.70;;;2.10;;
73296;SDS011;61524;50.938;11.396;2023-08-08T00:04:08;3.85;;;1.75;;
73296;SDS011;61524;50.938;11.396;2023-08-08T00:06:33;4.05;;;1.60;;
73296;SDS011;61524;50.938;11.396;2023-08-08T00:08:58;5.47;;;1.87;;
73296;SDS011;61524;50.938;11.396;2023-08-08T00:11:23;5.50;;;2.00;;
73296;SDS011;61524;50.938;11.396;2023-08-08T00:13:49;5.03;;;2.23;;
73296;SDS011;61524;50.938;11.396;2023-08-08T00:16:14;3.20;;;1.42;;
73296;SDS011;61524;50.938;11.396;2023-08-08T00:18:39;3.95;;;1.90;;
73296;SDS011;61524;50.938;11.396;2023-08-08T00:21:05;6.18;;;2.10;;
73296;SDS011;61524;50.938;11.396;2023-08-08T00:23:30;3.23;;;1.70;;
73296;SDS011;61524;50.938;11.396;2023-08-08T00:25:55;3.35;;;1.60;;
73296;SDS011;61524;50.938;11.396;2023-08-08T00:28:20;4.93;;;1.77;;
73296;SDS011;61524;50.938;11.396;2023-08-08T00:30:46;5.10;;;1.83;;
73296;SDS011;61524;50.938;11.396;2023-08-08T00:33:11;6.38;;;1.70;;
73296;SDS011;61524;50.938;11.396;2023-08-08T00:35:36;5.03;;;1.67;;
73296;SDS011;61524;50.938;11.396;2023-08-08T00:38:02;7.83;;;2.47;;
73296;SDS011;61524;50.938;11.396;2023-08-08T00:40:27;4.20;;;1.80;;
73296;SDS011;61524;50.938;11.396;2023-08-08T00:42:52;6.30;;;1.52;;
73296;SDS011;61524;50.938;11.396;2023-08-08T00:45:18;6.07;;;2.07;;
73296;SDS011;61524;50.938;11.396;2023-08-08T00:47:43;4.27;;;1.90;;
73296;SDS011;61524;50.938;11.396;2023-08-08T00:50:08;3.78;;;1.60;;
73296;SDS011;61524;50.938;11.396;2023-08-08T00:52:35;6.50;;;1.70;;
73296;SDS011;61524;50.938;11.396;2023-08-08T00:55:00;3.10;;;1.60;;
73296;SDS011;61524;50.938;11.396;2023-08-08T00:57:26;3.83;;;1.50;;
73296;SDS011;61524;50.938;11.396;2023-08-08T00:59:52;4.37;;;1.73;;
73296;SDS011;61524;50.938;11.396;2023-08-08T01:02:17;4.27;;;1.90;;
73296;SDS011;61524;50.938;11.396;2023-08-08T01:04:42;5.55;;;1.70;;
73296;SDS011;61524;50.938;11.396;2023-08-08T01:09:48;3.53;;;1.45;;
73296;SDS011;61524;50.938;11.396;2023-08-08T01:12:17;7.07;;;1.80;;
73296;SDS011;61524;50.938;11.396;2023-08-08T01:14:42;4.18;;;1.67;;
73296;SDS011;61524;50.938;11.396;2023-08-08T01:17:07;5.00;;;1.95;;
73296;SDS011;61524;50.938;11.396;2023-08-08T01:19:33;4.93;;;1.83;;
73296;SDS011;61524;50.938;11.396;2023-08-08T01:22:04;3.55;;;1.70;;
73296;SDS011;61524;50.938;11.396;2023-08-08T01:24:30;3.67;;;1.65;;
73296;SDS011;61524;50.938;11.396;2023-08-08T01:26:57;4.05;;;2.00;;
73296;SDS011;61524;50.938;11.396;2023-08-08T01:29:23;3.90;;;1.80;;
73296;SDS011;61524;50.938;11.396;2023-08-08T01:31:48;5.67;;;1.80;;
73296;SDS011;61524;50.938;11.396;2023-08-08T01:34:13;4.70;;;1.80;;
73296;SDS011;61524;50.938;11.396;2023-08-08T01:36:49;4.85;;;1.80;;
73296;SDS011;61524;50.938;11.396;2023-08-08T01:39:19;3.30;;;1.67;;
73296;SDS011;61524;50.938;11.396;2023-08-08T01:41:45;6.93;;;2.08;;
73296;SDS011;61524;50.938;11.396;2023-08-08T01:44:12;4.45;;;1.58;;
73296;SDS011;61524;50.938;11.396;2023-08-08T01:46:37;5.25;;;1.95;;
73296;SDS011;61524;50.938;11.396;2023-08-08T01:49:03;3.60;;;1.92;;
73296;SDS011;61524;50.938;11.396;2023-08-08T01:51:29;4.20;;;1.90;;
73296;SDS011;61524;50.938;11.396;2023-08-08T01:53:54;3.90;;;1.73;;
73296;SDS011;61524;50.938;11.396;2023-08-08T01:56:19;5.13;;;1.80;;
73296;SDS011;61524;50.938;11.396;2023-08-08T01:58:44;3.95;;;1.75;;
73296;SDS011;61524;50.938;11.396;2023-08-08T02:01:10;3.67;;;1.77;;
73296;SDS011;61524;50.938;11.396;2023-08-08T02:03:35;2.90;;;1.40;;
73296;SDS011;61524;50.938;11.396;2023-08-08T02:06:00;4.40;;;1.70;;
73296;SDS011;61524;50.938;11.396;2023-08-08T02:08:25;3.97;;;1.60;;
73296;SDS011;61524;50.938;11.396;2023-08-08T02:10:51;3.93;;;2.10;;
73296;SDS011;61524;50.938;11.396;2023-08-08T02:13:16;3.77;;;1.93;;
73296;SDS011;61524;50.938;11.396;2023-08-08T02:15:41;3.20;;;1.60;;
73296;SDS011;61524;50.938;11.396;2023-08-08T02:18:06;4.17;;;1.80;;
73296;SDS011;61524;50.938;11.396;2023-08-08T02:20:34;5.13;;;2.00;;
73296;SDS011;61524;50.938;11.396;2023-08-08T02:22:59;5.50;;;2.13;;
73296;SDS011;61524;50.938;11.396;2023-08-08T02:25:24;8.50;;;2.63;;
73296;SDS011;61524;50.938;11.396;2023-08-08T02:27:50;4.38;;;1.85;;
73296;SDS011;61524;50.938;11.396;2023-08-08T02:30:15;4.57;;;2.07;;
73296;SDS011;61524;50.938;11.396;2023-08-08T02:32:40;4.65;;;2.25;;
73296;SDS011;61524;50.938;11.396;2023-08-08T02:35:05;8.57;;;1.77;;
73296;SDS011;61524;50.938;11.396;2023-08-08T02:37:31;5.40;;;2.03;;
73296;SDS011;61524;50.938;11.396;2023-08-08T02:39:56;4.37;;;1.50;;
73296;SDS011;61524;50.938;11.396;2023-08-08T02:42:21;5.20;;;1.75;;
73296;SDS011;61524;50.938;11.396;2023-08-08T02:44:47;6.00;;;1.67;;
73296;SDS011;61524;50.938;11.396;2023-08-08T02:47:12;4.93;;;1.93;;
73296;SDS011;61524;50.938;11.396;2023-08-08T02:49:37;5.67;;;2.20;;
73296;SDS011;61524;50.938;11.396;2023-08-08T02:52:02;3.60;;;1.73;;
73296;SDS011;61524;50.938;11.396;2023-08-08T02:54:28;4.18;;;1.90;;
73296;SDS011;61524;50.938;11.396;2023-08-08T02:56:54;7.43;;;2.03;;
73296;SDS011;61524;50.938;11.396;2023-08-08T02:59:19;4.97;;;1.80;;
73296;SDS011;61524;50.938;11.396;2023-08-08T03:01:45;4.53;;;2.08;;
73296;SDS011;61524;50.938;11.396;2023-08-08T03:04:12;5.50;;;1.95;;
73296;SDS011;61524;50.938;11.396;2023-08-08T03:06:37;5.15;;;2.10;;
73296;SDS011;61524;50.938;11.396;2023-08-08T03:09:03;3.80;;;1.70;;
73296;SDS011;61524;50.938;11.396;2023-08-08T03:11:28;4.87;;;1.97;;
73296;SDS011;61524;50.938;11.396;2023-08-08T03:13:53;4.50;;;1.63;;
73296;SDS011;61524;50.938;11.396;2023-08-08T03:16:18;6.07;;;1.90;;
73296;SDS011;61524;50.938;11.396;2023-08-08T03:18:44;7.80;;;2.60;;
73296;SDS011;61524;50.938;11.396;2023-08-08T03:21:09;4.50;;;1.90;;
73296;SDS011;61524;50.938;11.396;2023-08-08T03:23:34;8.37;;;2.00;;
73296;SDS011;61524;50.938;11.396;2023-08-08T03:25:59;4.50;;;1.83;;
73296;SDS011;61524;50.938;11.396;2023-08-08T03:28:25;5.30;;;1.85;;
73296;SDS011;61524;50.938;11.396;2023-08-08T03:30:50;4.13;;;1.80;;
73296;SDS011;61524;50.938;11.396;2023-08-08T03:33:16;4.80;;;1.92;;
73296;SDS011;61524;50.938;11.396;2023-08-08T03:35:41;4.63;;;1.70;;
73296;SDS011;61524;50.938;11.396;2023-08-08T03:38:08;4.55;;;1.60;;
73296;SDS011;61524;50.938;11.396;2023-08-08T03:40:33;3.17;;;1.33;;
73296;SDS011;61524;50.938;11.396;2023-08-08T03:42:59;4.53;;;1.43;;
73296;SDS011;61524;50.938;11.396;2023-08-08T03:45:24;3.30;;;1.33;;
73296;SDS011;61524;50.938;11.396;2023-08-08T03:47:49;2.93;;;1.40;;
73296;SDS011;61524;50.938;11.396;2023-08-08T03:50:14;5.65;;;1.90;;
73296;SDS011;61524;50.938;11.396;2023-08-08T03:52:40;4.17;;;1.60;;
73296;SDS011;61524;50.938;11.396;2023-08-08T03:55:05;3.15;;;1.40;;
73296;SDS011;61524;50.938;11.396;2023-08-08T03:57:31;4.97;;;1.63;;
73296;SDS011;61524;50.938;11.396;2023-08-08T03:59:56;6.50;;;1.67;;
73296;SDS011;61524;50.938;11.396;2023-08-08T04:02:21;3.80;;;1.40;;
73296;SDS011;61524;50.938;11.396;2023-08-08T04:04:46;4.82;;;1.42;;
73296;SDS011;61524;50.938;11.396;2023-08-08T04:07:12;3.93;;;1.90;;
73296;SDS011;61524;50.938;11.396;2023-08-08T04:09:37;6.15;;;1.52;;
73296;SDS011;61524;50.938;11.396;2023-08-08T04:12:02;3.90;;;1.27;;
73296;SDS011;61524;50.938;11.396;2023-08-08T04:14:28;4.10;;;1.75;;
73296;SDS011;61524;50.938;11.396;2023-08-08T04:16:53;3.67;;;1.50;;
73296;SDS011;61524;50.938;11.396;2023-08-08T04:19:19;4.47;;;1.17;;
73296;SDS011;61524;50.938;11.396;2023-08-08T04:21:44;4.07;;;1.70;;
73296;SDS011;61524;50.938;11.396;2023-08-08T04:24:09;4.17;;;1.60;;
73296;SDS011;61524;50.938;11.396;2023-08-08T04:26:34;3.20;;;1.60;;
73296;SDS011;61524;50.938;11.396;2023-08-08T04:29:00;3.23;;;1.53;;
73296;SDS011;61524;50.938;11.396;2023-08-08T04:31:25;3.03;;;1.30;;
73296;SDS011;61524;50.938;11.396;2023-08-08T04:33:51;5.90;;;1.80;;
73296;SDS011;61524;50.938;11.396;2023-08-08T04:36:16;3.38;;;1.42;;
73296;SDS011;61524;50.938;11.396;2023-08-08T04:38:42;3.70;;;1.60;;
73296;SDS011;61524;50.938;11.396;2023-08-08T04:41:07;3.20;;;1.40;;
73296;SDS011;61524;50.938;11.396;2023-08-08T04:43:32;3.97;;;1.70;;
73296;SDS011;61524;50.938;11.396;2023-08-08T04:45:58;4.47;;;1.20;;
73296;SDS011;61524;50.938;11.396;2023-08-08T04:48:23;3.53;;;1.53;;
73296;SDS011;61524;50.938;11.396;2023-08-08T04:50:48;6.05;;;1.67;;
73296;SDS011;61524;50.938;11.396;2023-08-08T04:53:13;4.27;;;1.93;;
73296;SDS011;61524;50.938;11.396;2023-08-08T04:55:39;4.10;;;1.90;;
73296;SDS011;61524;50.938;11.396;2023-08-08T04:58:04;4.07;;;1.80;;
73296;SDS011;61524;50.938;11.396;2023-08-08T05:00:29;3.90;;;2.17;;
73296;SDS011;61524;50.938;11.396;2023-08-08T05:02:54;4.28;;;2.10;;
73296;SDS011;61524;50.938;11.396;2023-08-08T05:05:20;5.53;;;2.10;;
73296;SDS011;61524;50.938;11.396;2023-08-08T05:07:45;4.40;;;1.70;;
73296;SDS011;61524;50.938;11.396;2023-08-08T05:10:10;4.63;;;1.70;;
73296;SDS011;61524;50.938;11.396;2023-08-08T05:12:36;4.30;;;2.05;;
73296;SDS011;61524;50.938;11.396;2023-08-08T05:15:01;3.50;;;1.93;;
73296;SDS011;61524;50.938;11.396;2023-08-08T05:17:27;3.30;;;1.92;;
73296;SDS011;61524;50.938;11.396;2023-08-08T05:19:52;4.50;;;2.00;;
73296;SDS011;61524;50.938;11.396;2023-08-08T05:22:18;4.10;;;1.93;;
73296;SDS011;61524;50.938;11.396;2023-08-08T05:24:43;5.63;;;2.27;;
73296;SDS011;61524;50.938;11.396;2023-08-08T05:27:08;5.07;;;2.03;;
73296;SDS011;61524;50.938;11.396;2023-08-08T05:29:34;4.22;;;2.22;;
73296;SDS011;61524;50.938;11.396;2023-08-08T05:32:03;4.55;;;1.92;;
73296;SDS011;61524;50.938;11.396;2023-08-08T05:34:31;5.25;;;2.20;;
73296;SDS011;61524;50.938;11.396;2023-08-08T05:36:57;3.95;;;1.95;;
73296;SDS011;61524;50.938;11.396;2023-08-08T05:39:22;3.65;;;1.83;;
73296;SDS011;61524;50.938;11.396;2023-08-08T05:41:47;10.43;;;2.43;;
73296;SDS011;61524;50.938;11.396;2023-08-08T05:44:13;4.60;;;2.00;;
73296;SDS011;61524;50.938;11.396;2023-08-08T05:46:38;4.57;;;1.90;;
73296;SDS011;61524;50.938;11.396;2023-08-08T05:49:03;4.50;;;2.15;;
73296;SDS011;61524;50.938;11.396;2023-08-08T05:51:29;4.63;;;2.13;;
73296;SDS011;61524;50.938;11.396;2023-08-08T05:53:54;4.63;;;2.10;;
73296;SDS011;61524;50.938;11.396;2023-08-08T05:56:19;4.53;;;2.20;;
73296;SDS011;61524;50.938;11.396;2023-08-08T05:58:44;3.50;;;1.95;;
73296;SDS011;61524;50.938;11.396;2023-08-08T06:01:10;4.03;;;2.43;;
73296;SDS011;61524;50.938;11.396;2023-08-08T06:03:36;8.38;;;2.50;;
73296;SDS011;61524;50.938;11.396;2023-08-08T06:06:04;4.65;;;2.30;;
73296;SDS011;61524;50.938;11.396;2023-08-08T06:08:30;4.40;;;2.37;;
73296;SDS011;61524;50.938;11.396;2023-08-08T06:10:56;4.00;;;2.20;;
73296;SDS011;61524;50.938;11.396;2023-08-08T06:13:21;6.60;;;3.13;;
73296;SDS011;61524;50.938;11.396;2023-08-08T06:15:47;4.93;;;2.17;;
73296;SDS011;61524;50.938;11.396;2023-08-08T06:18:12;6.22;;;2.45;;
73296;SDS011;61524;50.938;11.396;2023-08-08T06:20:37;6.80;;;2.50;;
73296;SDS011;61524;50.938;11.396;2023-08-08T06:23:03;5.25;;;2.10;;
73296;SDS011;61524;50.938;11.396;2023-08-08T06:25:28;7.60;;;2.17;;
73296;SDS011;61524;50.938;11.396;2023-08-08T06:27:53;4.68;;;2.67;;
73296;SDS011;61524;50.938;11.396;2023-08-08T06:30:19;5.40;;;2.00;;
73296;SDS011;61524;50.938;11.396;2023-08-08T06:32:45;5.38;;;2.20;;
73296;SDS011;61524;50.938;11.396;2023-08-08T06:35:10;7.80;;;2.43;;
73296;SDS011;61524;50.938;11.396;2023-08-08T06:37:36;4.37;;;1.97;;
73296;SDS011;61524;50.938;11.396;2023-08-08T06:40:01;4.27;;;2.27;;
73296;SDS011;61524;50.938;11.396;2023-08-08T06:42:26;6.45;;;2.08;;
73296;SDS011;61524;50.938;11.396;2023-08-08T06:44:52;3.83;;;2.13;;
73296;SDS011;61524;50.938;11.396;2023-08-08T06:47:17;5.60;;;2.20;;
73296;SDS011;61524;50.938;11.396;2023-08-08T06:49:42;4.87;;;1.93;;
73296;SDS011;61524;50.938;11.396;2023-08-08T06:52:07;5.47;;;2.10;;
73296;SDS011;61524;50.938;11.396;2023-08-08T06:54:33;3.83;;;1.98;;
73296;SDS011;61524;50.938;11.396;2023-08-08T06:56:58;5.83;;;2.10;;
73296;SDS011;61524;50.938;11.396;2023-08-08T06:59:23;4.47;;;1.73;;
73296;SDS011;61524;50.938;11.396;2023-08-08T07:01:49;3.35;;;1.70;;
73296;SDS011;61524;50.938;11.396;2023-08-08T07:04:15;3.35;;;1.70;;
73296;SDS011;61524;50.938;11.396;2023-08-08T07:06:42;3.25;;;1.73;;
73296;SDS011;61524;50.938;11.396;2023-08-08T07:09:07;3.95;;;1.92;;
73296;SDS011;61524;50.938;11.396;2023-08-08T07:11:35;3.45;;;1.60;;
73296;SDS011;61524;50.938;11.396;2023-08-08T07:14:00;4.20;;;1.70;;
73296;SDS011;61524;50.938;11.396;2023-08-08T07:16:26;3.90;;;1.70;;
73296;SDS011;61524;50.938;11.396;2023-08-08T07:18:51;2.93;;;1.30;;
73296;SDS011;61524;50.938;11.396;2023-08-08T07:21:16;4.70;;;1.50;;
73296;SDS011;61524;50.938;11.396;2023-08-08T07:23:42;3.90;;;1.53;;
73296;SDS011;61524;50.938;11.396;2023-08-08T07:26:07;6.03;;;1.80;;
73296;SDS011;61524;50.938;11.396;2023-08-08T07:28:32;3.13;;;1.67;;
73296;SDS011;61524;50.938;11.396;2023-08-08T07:30:58;4.20;;;1.52;;
73296;SDS011;61524;50.938;11.396;2023-08-08T07:33:23;5.40;;;2.10;;
73296;SDS011;61524;50.938;11.396;2023-08-08T07:35:48;2.65;;;1.50;;
73296;SDS011;61524;50.938;11.396;2023-08-08T07:38:14;5.93;;;1.50;;
73296;SDS011;61524;50.938;11.396;2023-08-08T07:40:40;4.10;;;1.92;;
73296;SDS011;61524;50.938;11.396;2023-08-08T07:43:06;4.15;;;1.70;;
73296;SDS011;61524;50.938;11.396;2023-08-08T07:45:31;4.23;;;1.30;;
73296;SDS011;61524;50.938;11.396;2023-08-08T07:47:57;5.70;;;2.20;;
73296;SDS011;61524;50.938;11.396;2023-08-08T07:50:22;3.10;;;1.60;;
73296;SDS011;61524;50.938;11.396;2023-08-08T07:52:47;3.47;;;1.80;;
73296;SDS011;61524;50.938;11.396;2023-08-08T07:55:12;4.40;;;1.73;;
73296;SDS011;61524;50.938;11.396;2023-08-08T07:57:38;4.75;;;1.60;;
73296;SDS011;61524;50.938;11.396;2023-08-08T08:00:03;3.07;;;1.80;;
73296;SDS011;61524;50.938;11.396;2023-08-08T08:02:47;3.33;;;1.70;;
73296;SDS011;61524;50.938;11.396;2023-08-08T08:05:13;6.83;;;2.00;;
73296;SDS011;61524;50.938;11.396;2023-08-08T08:07:38;5.03;;;1.70;;
73296;SDS011;61524;50.938;11.396;2023-08-08T08:10:05;3.33;;;1.67;;
73296;SDS011;61524;50.938;11.396;2023-08-08T08:12:31;4.78;;;1.85;;
73296;SDS011;61524;50.938;11.396;2023-08-08T08:14:56;3.30;;;1.60;;
73296;SDS011;61524;50.938;11.396;2023-08-08T08:17:21;3.90;;;1.60;;
73296;SDS011;61524;50.938;11.396;2023-08-08T08:19:47;3.15;;;1.50;;
73296;SDS011;61524;50.938;11.396;2023-08-08T08:22:12;2.65;;;1.45;;
73296;SDS011;61524;50.938;11.396;2023-08-08T08:24:37;3.47;;;1.30;;
73296;SDS011;61524;50.938;11.396;2023-08-08T08:27:03;5.22;;;1.67;;
73296;SDS011;61524;50.938;11.396;2023-08-08T08:29:28;2.97;;;1.42;;
73296;SDS011;61524;50.938;11.396;2023-08-08T08:31:53;6.03;;;1.50;;
73296;SDS011;61524;50.938;11.396;2023-08-08T08:34:19;3.70;;;1.30;;
73296;SDS011;61524;50.938;11.396;2023-08-08T08:36:44;4.03;;;1.80;;
73296;SDS011;61524;50.938;11.396;2023-08-08T08:39:09;2.78;;;1.15;;
73296;SDS011;61524;50.938;11.396;2023-08-08T08:41:35;3.17;;;1.00;;
73296;SDS011;61524;50.938;11.396;2023-08-08T08:44:00;4.28;;;1.45;;
73296;SDS011;61524;50.938;11.396;2023-08-08T08:46:26;3.97;;;1.23;;
73296;SDS011;61524;50.938;11.396;2023-08-08T08:48:52;5.80;;;1.70;;
73296;SDS011;61524;50.938;11.396;2023-08-08T08:51:19;3.40;;;1.20;;
73296;SDS011;61524;50.938;11.396;2023-08-08T08:53:45;4.45;;;1.10;;
73296;SDS011;61524;50.938;11.396;2023-08-08T08:56:14;2.28;;;0.98;;
73296;SDS011;61524;50.938;11.396;2023-08-08T08:58:41;5.28;;;1.13;;
73296;SDS011;61524;50.938;11.396;2023-08-08T09:01:07;5.32;;;1.40;;
73296;SDS011;61524;50.938;11.396;2023-08-08T09:03:33;3.42;;;1.40;;
73296;SDS011;61524;50.938;11.396;2023-08-08T09:08:24;4.43;;;1.25;;
73296;SDS011;61524;50.938;11.396;2023-08-08T09:10:50;2.63;;;1.37;;
73296;SDS011;61524;50.938;11.396;2023-08-08T09:13:16;3.40;;;1.58;;
73296;SDS011;61524;50.938;11.396;2023-08-08T09:15:41;4.55;;;1.77;;
73296;SDS011;61524;50.938;11.396;2023-08-08T09:18:07;3.67;;;1.60;;
73296;SDS011;61524;50.938;11.396;2023-08-08T09:20:32;3.22;;;1.10;;
73296;SDS011;61524;50.938;11.396;2023-08-08T09:22:57;2.95;;;1.10;;
73296;SDS011;61524;50.938;11.396;2023-08-08T09:25:23;4.85;;;1.13;;
73296;SDS011;61524;50.938;11.396;2023-08-08T09:27:52;2.70;;;1.10;;
73296;SDS011;61524;50.938;11.396;2023-08-08T09:30:20;2.00;;;1.00;;
73296;SDS011;61524;50.938;11.396;2023-08-08T09:32:45;2.45;;;1.27;;
73296;SDS011;61524;50.938;11.396;2023-08-08T09:35:11;3.22;;;1.10;;
73296;SDS011;61524;50.938;11.396;2023-08-08T09:37:36;2.28;;;1.13;;
73296;SDS011;61524;50.938;11.396;2023-08-08T09:40:02;4.32;;;1.30;;
73296;SDS011;61524;50.938;11.396;2023-08-08T09:42:29;3.33;;;1.30;;
73296;SDS011;61524;50.938;11.396;2023-08-08T09:44:56;4.45;;;1.35;;
73296;SDS011;61524;50.938;11.396;2023-08-08T09:47:21;3.17;;;1.33;;
73296;SDS011;61524;50.938;11.396;2023-08-08T09:49:47;2.88;;;1.30;;
73296;SDS011;61524;50.938;11.396;2023-08-08T09:52:12;3.05;;;1.10;;
73296;SDS011;61524;50.938;11.396;2023-08-08T09:54:38;2.90;;;1.20;;
73296;SDS011;61524;50.938;11.396;2023-08-08T09:57:04;3.65;;;1.33;;
73296;SDS011;61524;50.938;11.396;2023-08-08T09:59:30;2.53;;;1.00;;
73296;SDS011;61524;50.938;11.396;2023-08-08T10:01:55;2.22;;;1.05;;
73296;SDS011;61524;50.938;11.396;2023-08-08T10:04:22;3.60;;;1.17;;
73296;SDS011;61524;50.938;11.396;2023-08-08T10:06:47;2.80;;;1.17;;
73296;SDS011;61524;50.938;11.396;2023-08-08T10:09:13;4.13;;;1.40;;
73296;SDS011;61524;50.938;11.396;2023-08-08T10:11:38;2.30;;;1.00;;
73296;SDS011;61524;50.938;11.396;2023-08-08T10:14:04;2.53;;;1.33;;
73296;SDS011;61524;50.938;11.396;2023-08-08T10:16:31;2.67;;;1.00;;
73296;SDS011;61524;50.938;11.396;2023-08-08T10:19:00;3.70;;;1.27;;
73296;SDS011;61524;50.938;11.396;2023-08-08T10:21:26;3.38;;;1.20;;
73296;SDS011;61524;50.938;11.396;2023-08-08T10:24:08;2.63;;;1.20;;
73296;SDS011;61524;50.938;11.396;2023-08-08T10:26:33;2.60;;;1.00;;
73296;SDS011;61524;50.938;11.396;2023-08-08T10:28:59;2.80;;;1.30;;
73296;SDS011;61524;50.938;11.396;2023-08-08T10:31:25;2.58;;;0.93;;
73296;SDS011;61524;50.938;11.396;2023-08-08T10:33:59;3.80;;;1.20;;
73296;SDS011;61524;50.938;11.396;2023-08-08T10:36:25;3.15;;;1.35;;
73296;SDS011;61524;50.938;11.396;2023-08-08T10:38:50;2.57;;;1.00;;
73296;SDS011;61524;50.938;11.396;2023-08-08T10:41:18;3.33;;;1.30;;
73296;SDS011;61524;50.938;11.396;2023-08-08T10:43:50;3.20;;;1.13;;
73296;SDS011;61524;50.938;11.396;2023-08-08T10:48:53;2.33;;;1.13;;
73296;SDS011;61524;50.938;11.396;2023-08-08T10:51:18;3.53;;;1.00;;
73296;SDS011;61524;50.938;11.396;2023-08-08T10:53:44;2.85;;;1.20;;
73296;SDS011;61524;50.938;11.396;2023-08-08T10:56:12;3.78;;;1.58;;
73296;SDS011;61524;50.938;11.396;2023-08-08T10:58:37;3.40;;;1.20;;
73296;SDS011;61524;50.938;11.396;2023-08-08T11:01:03;3.22;;;1.00;;
73296;SDS011;61524;50.938;11.396;2023-08-08T11:03:33;2.60;;;1.20;;
73296;SDS011;61524;50.938;11.396;2023-08-08T11:05:59;3.30;;;1.27;;
73296;SDS011;61524;50.938;11.396;2023-08-08T11:08:24;4.40;;;1.27;;
73296;SDS011;61524;50.938;11.396;2023-08-08T11:10:52;2.70;;;1.23;;
73296;SDS011;61524;50.938;11.396;2023-08-08T11:13:18;3.40;;;1.13;;
73296;SDS011;61524;50.938;11.396;2023-08-08T11:15:43;4.63;;;1.10;;
73296;SDS011;61524;50.938;11.396;2023-08-08T11:18:08;3.00;;;1.20;;
73296;SDS011;61524;50.938;11.396;2023-08-08T11:20:35;2.78;;;1.45;;
73296;SDS011;61524;50.938;11.396;2023-08-08T11:23:00;4.18;;;1.40;;
73296;SDS011;61524;50.938;11.396;2023-08-08T11:25:26;2.80;;;1.10;;
73296;SDS011;61524;50.938;11.396;2023-08-08T11:27:52;2.85;;;1.20;;
73296;SDS011;61524;50.938;11.396;2023-08-08T11:30:18;2.97;;;1.10;;
73296;SDS011;61524;50.938;11.396;2023-08-08T11:32:44;3.15;;;1.05;;
73296;SDS011;61524;50.938;11.396;2023-08-08T11:35:10;2.67;;;1.10;;
73296;SDS011;61524;50.938;11.396;2023-08-08T11:37:35;4.20;;;1.23;;
73296;SDS011;61524;50.938;11.396;2023-08-08T11:40:01;2.72;;;1.17;;
73296;SDS011;61524;50.938;11.396;2023-08-08T11:42:26;3.85;;;1.30;;
73296;SDS011;61524;50.938;11.396;2023-08-08T11:44:52;2.30;;;1.08;;
73296;SDS011;61524;50.938;11.396;2023-08-08T11:47:17;3.65;;;1.00;;
73296;SDS011;61524;50.938;11.396;2023-08-08T11:49:43;2.90;;;1.38;;
73296;SDS011;61524;50.938;11.396;2023-08-08T11:52:08;3.87;;;1.13;;
73296;SDS011;61524;50.938;11.396;2023-08-08T11:54:33;2.47;;;1.05;;
73296;SDS011;61524;50.938;11.396;2023-08-08T11:57:01;3.33;;;1.20;;
73296;SDS011;61524;50.938;11.396;2023-08-08T11:59:27;3.78;;;1.50;;
73296;SDS011;61524;50.938;11.396;2023-08-08T12:01:52;3.00;;;1.20;;
73296;SDS011;61524;50.938;11.396;2023-08-08T12:04:19;2.13;;;1.10;;
73296;SDS011;61524;50.938;11.396;2023-08-08T12:06:45;2.58;;;1.05;;
73296;SDS011;61524;50.938;11.396;2023-08-08T12:09:13;2.30;;;0.93;;
73296;SDS011;61524;50.938;11.396;2023-08-08T12:11:38;4.15;;;1.13;;
73296;SDS011;61524;50.938;11.396;2023-08-08T12:14:06;2.67;;;1.27;;
73296;SDS011;61524;50.938;11.396;2023-08-08T12:16:32;2.58;;;1.13;;
73296;SDS011;61524;50.938;11.396;2023-08-08T12:18:59;2.55;;;1.00;;
73296;SDS011;61524;50.938;11.396;2023-08-08T12:21:26;2.85;;;1.15;;
73296;SDS011;61524;50.938;11.396;2023-08-08T12:23:51;4.68;;;1.20;;
73296;SDS011;61524;50.938;11.396;2023-08-08T12:26:17;2.45;;;1.00;;
73296;SDS011;61524;50.938;11.396;2023-08-08T12:28:43;4.32;;;1.35;;
73296;SDS011;61524;50.938;11.396;2023-08-08T12:31:08;2.70;;;1.13;;
73296;SDS011;61524;50.938;11.396;2023-08-08T12:33:33;4.90;;;1.33;;
73296;SDS011;61524;50.938;11.396;2023-08-08T12:35:58;3.33;;;1.10;;
73296;SDS011;61524;50.938;11.396;2023-08-08T12:38:24;4.63;;;1.43;;
73296;SDS011;61524;50.938;11.396;2023-08-08T12:40:49;2.17;;;1.00;;
73296;SDS011;61524;50.938;11.396;2023-08-08T12:43:14;3.93;;;1.20;;
73296;SDS011;61524;50.938;11.396;2023-08-08T12:45:43;6.07;;;1.52;;
73296;SDS011;61524;50.938;11.396;2023-08-08T12:48:08;3.60;;;1.35;;
73296;SDS011;61524;50.938;11.396;2023-08-08T12:50:34;2.97;;;1.20;;
73296;SDS011;61524;50.938;11.396;2023-08-08T12:52:59;4.05;;;1.15;;
73296;SDS011;61524;50.938;11.396;2023-08-08T12:55:24;3.42;;;1.50;;
73296;SDS011;61524;50.938;11.396;2023-08-08T12:57:50;3.22;;;1.30;;
73296;SDS011;61524;50.938;11.396;2023-08-08T13:00:15;2.93;;;1.23;;
73296;SDS011;61524;50.938;11.396;2023-08-08T13:02:41;3.33;;;1.13;;
73296;SDS011;61524;50.938;11.396;2023-08-08T13:05:06;4.13;;;1.27;;
73296;SDS011;61524;50.938;11.396;2023-08-08T13:07:35;4.32;;;1.10;;
73296;SDS011;61524;50.938;11.396;2023-08-08T13:10:00;3.60;;;1.27;;
73296;SDS011;61524;50.938;11.396;2023-08-08T13:12:25;3.53;;;1.15;;
73296;SDS011;61524;50.938;11.396;2023-08-08T13:14:51;3.50;;;1.30;;
73296;SDS011;61524;50.938;11.396;2023-08-08T13:17:16;2.20;;;1.10;;
73296;SDS011;61524;50.938;11.396;2023-08-08T13:19:41;3.13;;;1.30;;
73296;SDS011;61524;50.938;11.396;2023-08-08T13:22:06;3.67;;;1.40;;
73296;SDS011;61524;50.938;11.396;2023-08-08T13:24:32;3.87;;;1.47;;
73296;SDS011;61524;50.938;11.396;2023-08-08T13:26:57;4.35;;;1.48;;
73296;SDS011;61524;50.938;11.396;2023-08-08T13:29:22;5.07;;;1.63;;
73296;SDS011;61524;50.938;11.396;2023-08-08T13:31:48;3.60;;;1.42;;
73296;SDS011;61524;50.938;11.396;2023-08-08T13:34:13;5.77;;;2.57;;
73296;SDS011;61524;50.938;11.396;2023-08-08T13:36:39;7.50;;;1.98;;
73296;SDS011;61524;50.938;11.396;2023-08-08T13:39:04;3.88;;;1.42;;
73296;SDS011;61524;50.938;11.396;2023-08-08T13:41:29;4.10;;;1.60;;
73296;SDS011;61524;50.938;11.396;2023-08-08T13:43:55;5.80;;;1.95;;
73296;SDS011;61524;50.938;11.396;2023-08-08T13:46:21;5.38;;;1.60;;
73296;SDS011;61524;50.938;11.396;2023-08-08T13:48:46;4.68;;;2.10;;
73296;SDS011;61524;50.938;11.396;2023-08-08T13:51:11;6.93;;;1.90;;
73296;SDS011;61524;50.938;11.396;2023-08-08T13:53:37;8.70;;;1.95;;
73296;SDS011;61524;50.938;11.396;2023-08-08T13:56:02;5.17;;;1.80;;
73296;SDS011;61524;50.938;11.396;2023-08-08T13:58:27;5.05;;;1.80;;
73296;SDS011;61524;50.938;11.396;2023-08-08T14:00:54;3.20;;;1.50;;
73296;SDS011;61524;50.938;11.396;2023-08-08T14:03:19;4.28;;;1.60;;
73296;SDS011;61524;50.938;11.396;2023-08-08T14:05:45;5.07;;;2.00;;
73296;SDS011;61524;50.938;11.396;2023-08-08T14:08:10;4.07;;;2.03;;
73296;SDS011;61524;50.938;11.396;2023-08-08T14:10:36;3.93;;;2.10;;
73296;SDS011;61524;50.938;11.396;2023-08-08T14:13:01;4.78;;;2.72;;
73296;SDS011;61524;50.938;11.396;2023-08-08T14:15:26;4.03;;;2.08;;
73296;SDS011;61524;50.938;11.396;2023-08-08T14:17:52;4.50;;;1.90;;
73296;SDS011;61524;50.938;11.396;2023-08-08T14:20:17;4.30;;;2.00;;
73296;SDS011;61524;50.938;11.396;2023-08-08T14:22:44;4.88;;;2.00;;
73296;SDS011;61524;50.938;11.396;2023-08-08T14:25:09;4.45;;;1.73;;
73296;SDS011;61524;50.938;11.396;2023-08-08T14:27:34;3.77;;;1.73;;
73296;SDS011;61524;50.938;11.396;2023-08-08T14:30:01;4.47;;;1.80;;
73296;SDS011;61524;50.938;11.396;2023-08-08T14:32:26;4.82;;;2.25;;